createdAt,value
2017-08-05T00:01:34.917Z,2.10
2017-08-05T00:04:02.481Z,2.33
2017-08-05T00:06:30.035Z,2.30
2017-08-05T00:08:57.569Z,2.30
2017-08-05T00:11:25.190Z,2.03
2017-08-05T00:13:52.726Z,2.30
2017-08-05T00:16:20.276Z,2.53
2017-08-05T00:18:47.814Z,1.90
2017-08-05T00:21:15.386Z,2.00
2017-08-05T00:23:42.922Z,2.23
2017-08-05T00:26:10.497Z,1.90
2017-08-05T00:28:39.494Z,2.73
2017-08-05T00:31:07.108Z,2.23
2017-08-05T00:33:35.428Z,1.83
2017-08-05T00:36:03.592Z,2.60
2017-08-05T00:38:31.150Z,2.30
2017-08-05T00:40:58.730Z,2.20
2017-08-05T00:43:26.281Z,2.40
2017-08-05T00:45:53.817Z,1.90
2017-08-05T00:48:21.362Z,2.07
2017-08-05T00:50:48.917Z,2.20
2017-08-05T00:53:17.138Z,3.57
2017-08-05T00:55:44.669Z,2.17
2017-08-05T00:58:12.223Z,2.20
2017-08-05T01:00:39.757Z,2.57
2017-08-05T01:03:07.323Z,3.47
2017-08-05T01:05:34.879Z,2.10
2017-08-05T01:08:02.441Z,2.70
2017-08-05T01:10:30.761Z,2.30
2017-08-05T01:12:58.346Z,2.90
2017-08-05T01:15:25.867Z,2.30
2017-08-05T01:17:53.419Z,2.20
2017-08-05T01:20:20.989Z,2.90
2017-08-05T01:22:48.933Z,2.60
2017-08-05T01:25:16.500Z,2.23
2017-08-05T01:27:44.049Z,2.87
2017-08-05T01:30:11.628Z,2.20
2017-08-05T01:32:39.181Z,3.00
2017-08-05T01:35:06.748Z,2.50
2017-08-05T01:37:34.317Z,2.40
2017-08-05T01:40:01.900Z,2.40
2017-08-05T01:42:29.485Z,3.30
2017-08-05T01:44:57.063Z,3.00
2017-08-05T01:47:24.681Z,2.63
2017-08-05T01:49:52.245Z,3.23
2017-08-05T01:52:19.805Z,2.43
2017-08-05T01:54:47.354Z,2.20
2017-08-05T01:57:15.868Z,2.70
2017-08-05T01:59:43.418Z,4.30
2017-08-05T02:02:10.972Z,2.93
2017-08-05T02:04:38.634Z,6.43
2017-08-05T02:07:06.195Z,2.77
2017-08-05T02:09:33.730Z,3.00
2017-08-05T02:12:01.292Z,2.70
2017-08-05T02:14:30.286Z,2.97
2017-08-05T02:16:58.647Z,3.50
2017-08-05T02:19:26.195Z,2.50
2017-08-05T02:21:53.749Z,2.40
2017-08-05T02:24:21.346Z,2.63
2017-08-05T02:26:49.653Z,2.60
2017-08-05T02:29:17.265Z,2.23
2017-08-05T02:31:44.789Z,2.77
2017-08-05T02:34:12.385Z,3.03
2017-08-05T02:36:39.929Z,2.80
2017-08-05T02:39:07.514Z,2.85
2017-08-05T02:41:35.064Z,3.07
2017-08-05T02:44:02.638Z,2.80
2017-08-05T02:46:30.213Z,2.95
2017-08-05T02:48:57.782Z,3.15
2017-08-05T02:51:25.376Z,2.77
2017-08-05T02:53:52.929Z,2.45
2017-08-05T02:56:20.465Z,2.95
2017-08-05T02:58:48.037Z,2.57
2017-08-05T03:01:15.607Z,2.60
2017-08-05T03:03:43.185Z,2.97
2017-08-05T03:06:10.753Z,2.47
2017-08-05T03:08:38.336Z,3.80
2017-08-05T03:11:06.653Z,3.20
2017-08-05T03:13:34.220Z,2.72
2017-08-05T03:16:02.622Z,3.00
2017-08-05T03:18:30.195Z,2.80
2017-08-05T03:20:57.770Z,4.00
2017-08-05T03:23:25.307Z,2.95
2017-08-05T03:25:53.063Z,2.80
2017-08-05T03:28:20.604Z,2.92
2017-08-05T03:30:48.227Z,2.95
2017-08-05T03:33:15.785Z,3.40
2017-08-05T03:35:44.190Z,3.08
2017-08-05T03:38:12.222Z,3.45
2017-08-05T03:40:39.782Z,2.40
2017-08-05T03:43:07.366Z,2.62
2017-08-05T03:45:34.922Z,3.00
2017-08-05T03:48:02.525Z,2.50
2017-08-05T03:50:30.079Z,3.17
2017-08-05T03:52:57.659Z,2.78
2017-08-05T03:55:25.198Z,2.35
2017-08-05T03:57:52.786Z,3.33
2017-08-05T04:00:20.345Z,2.78
2017-08-05T04:02:47.933Z,3.00
2017-08-05T04:05:15.479Z,2.45
2017-08-05T04:07:43.037Z,2.92
2017-08-05T04:10:11.076Z,3.10
2017-08-05T04:12:38.670Z,2.60
2017-08-05T04:15:06.255Z,2.50
2017-08-05T04:17:33.798Z,3.25
2017-08-05T04:20:01.936Z,2.80
2017-08-05T04:22:29.469Z,3.15
2017-08-05T04:24:57.852Z,2.75
2017-08-05T04:27:25.425Z,2.70
2017-08-05T04:29:53.022Z,3.13
2017-08-05T04:32:20.591Z,3.25
2017-08-05T04:34:48.137Z,3.63
2017-08-05T04:37:16.444Z,3.50
2017-08-05T04:39:43.976Z,3.40
2017-08-05T04:42:11.561Z,4.33
2017-08-05T04:44:39.962Z,3.50
2017-08-05T04:47:07.523Z,3.87
2017-08-05T04:49:35.086Z,4.40
2017-08-05T04:52:02.673Z,3.70
2017-08-05T04:54:30.217Z,3.13
2017-08-05T04:56:57.798Z,4.00
2017-08-05T04:59:25.340Z,4.20
2017-08-05T05:01:52.877Z,3.40
2017-08-05T05:04:20.439Z,4.23
2017-08-05T05:06:49.301Z,3.80
2017-08-05T05:09:16.887Z,3.57
2017-08-05T05:11:44.455Z,3.70
2017-08-05T05:14:12.019Z,3.30
2017-08-05T05:16:40.345Z,3.37
2017-08-05T05:19:07.912Z,3.47
2017-08-05T05:21:35.507Z,3.40
2017-08-05T05:24:03.061Z,4.60
2017-08-05T05:26:30.605Z,4.17
2017-08-05T05:28:58.168Z,4.30
2017-08-05T05:31:27.609Z,3.23
2017-08-05T05:33:56.394Z,3.63
2017-08-05T05:36:23.987Z,3.50
2017-08-05T05:38:51.567Z,3.87
2017-08-05T05:41:23.256Z,3.30
2017-08-05T05:43:51.218Z,3.80
2017-08-05T05:46:18.780Z,3.50
2017-08-05T05:48:47.090Z,3.40
2017-08-05T05:51:15.457Z,3.50
2017-08-05T05:53:44.933Z,4.10
2017-08-05T05:56:12.486Z,3.50
2017-08-05T05:58:40.032Z,3.63
2017-08-05T06:01:07.573Z,2.97
2017-08-05T06:03:35.112Z,3.20
2017-08-05T06:06:03.418Z,3.30
2017-08-05T06:08:30.966Z,3.70
2017-08-05T06:10:59.348Z,2.80
2017-08-05T06:13:27.762Z,3.57
2017-08-05T06:15:55.289Z,3.20
2017-08-05T06:18:23.601Z,3.43
2017-08-05T06:20:52.034Z,3.00
2017-08-05T06:23:19.594Z,3.00
2017-08-05T06:25:47.190Z,2.60
2017-08-05T06:28:16.422Z,2.83
2017-08-05T06:30:43.998Z,3.07
2017-08-05T06:33:11.543Z,2.87
2017-08-05T06:35:39.103Z,4.27
2017-08-05T06:38:06.645Z,2.70
2017-08-05T06:40:37.426Z,2.90
2017-08-05T06:43:04.949Z,2.73
2017-08-05T06:45:34.030Z,2.87
2017-08-05T06:48:01.575Z,3.03
2017-08-05T06:50:29.101Z,2.30
2017-08-05T06:52:56.673Z,2.67
2017-08-05T06:55:24.290Z,2.20
2017-08-05T06:57:51.854Z,2.30
2017-08-05T07:00:19.493Z,2.20
2017-08-05T07:02:47.050Z,2.70
2017-08-05T07:05:14.602Z,2.77
2017-08-05T07:07:42.737Z,2.30
2017-08-05T07:10:10.990Z,2.30
2017-08-05T07:12:40.468Z,2.50
2017-08-05T07:15:08.069Z,2.13
2017-08-05T07:17:36.351Z,2.40
2017-08-05T07:20:03.904Z,2.17
2017-08-05T07:22:31.487Z,2.70
2017-08-05T07:24:59.042Z,2.50
2017-08-05T07:27:26.583Z,2.80
2017-08-05T07:29:54.231Z,2.70
2017-08-05T07:32:22.240Z,3.07
2017-08-05T07:34:49.895Z,3.27
2017-08-05T07:37:18.067Z,2.80
2017-08-05T07:39:45.633Z,3.17
2017-08-05T07:42:18.028Z,2.50
2017-08-05T07:44:45.598Z,1.93
2017-08-05T07:47:13.139Z,2.63
2017-08-05T07:49:40.678Z,2.43
2017-08-05T07:52:08.202Z,2.90
2017-08-05T07:54:35.751Z,2.10
2017-08-05T07:57:03.325Z,3.37
2017-08-05T07:59:30.876Z,2.97
2017-08-05T08:01:58.430Z,2.83
2017-08-05T08:04:25.964Z,2.60
2017-08-05T08:06:54.297Z,2.10
2017-08-05T08:09:21.860Z,2.63
2017-08-05T08:11:49.848Z,2.37
2017-08-05T08:14:18.216Z,2.30
2017-08-05T08:16:45.793Z,2.50
2017-08-05T08:19:13.341Z,2.30
2017-08-05T08:21:40.906Z,2.90
2017-08-05T08:24:08.527Z,3.17
2017-08-05T08:26:36.822Z,2.00
2017-08-05T08:29:04.381Z,2.87
2017-08-05T08:31:36.541Z,3.00
2017-08-05T08:34:04.871Z,2.53
2017-08-05T08:36:32.427Z,3.53
2017-08-05T08:39:00.044Z,2.23
2017-08-05T08:41:29.383Z,2.30
2017-08-05T08:43:57.002Z,2.40
2017-08-05T08:46:24.541Z,2.40
2017-08-05T08:48:52.125Z,2.60
2017-08-05T08:51:19.652Z,2.13
2017-08-05T08:53:47.273Z,2.37
2017-08-05T08:56:15.591Z,2.90
2017-08-05T08:58:43.147Z,2.20
2017-08-05T09:01:11.662Z,2.40
2017-08-05T09:03:39.224Z,2.50
2017-08-05T09:06:06.772Z,2.50
2017-08-05T09:08:34.326Z,2.47
2017-08-05T09:11:01.885Z,2.57
2017-08-05T09:13:30.205Z,2.40
2017-08-05T09:15:57.817Z,1.87
2017-08-05T09:18:26.146Z,2.60
2017-08-05T09:20:53.814Z,2.63
2017-08-05T09:23:21.365Z,2.00
2017-08-05T09:25:49.393Z,2.40
2017-08-05T09:28:16.944Z,2.30
2017-08-05T09:30:44.537Z,2.73
2017-08-05T09:33:12.871Z,2.93
2017-08-05T09:35:40.404Z,2.40
2017-08-05T09:38:08.726Z,2.63
2017-08-05T09:40:36.265Z,2.57
2017-08-05T09:43:03.841Z,2.93
2017-08-05T09:45:31.388Z,2.33
2017-08-05T09:47:58.937Z,3.00
2017-08-05T09:50:27.260Z,3.60
2017-08-05T09:52:54.818Z,2.77
2017-08-05T09:55:22.364Z,2.23
2017-08-05T09:57:49.899Z,2.60
2017-08-05T10:00:18.235Z,2.50
2017-08-05T10:02:45.832Z,2.17
2017-08-05T10:05:13.400Z,2.20
2017-08-05T10:07:40.933Z,2.30
2017-08-05T10:10:08.516Z,2.20
2017-08-05T10:12:36.060Z,2.10
2017-08-05T10:15:03.646Z,2.40
2017-08-05T10:17:31.212Z,3.40
2017-08-05T10:19:58.774Z,2.47
2017-08-05T10:22:26.520Z,3.00
2017-08-05T10:24:54.085Z,3.17
2017-08-05T10:27:21.625Z,2.80
2017-08-05T10:29:49.174Z,2.87
2017-08-05T10:32:18.089Z,3.70
2017-08-05T10:34:45.665Z,2.37
2017-08-05T10:37:13.226Z,2.43
2017-08-05T10:39:40.779Z,3.07
2017-08-05T10:42:08.382Z,2.57
2017-08-05T10:44:35.933Z,2.57
2017-08-05T10:47:03.481Z,2.50
2017-08-05T10:49:31.012Z,2.50
2017-08-05T10:51:59.376Z,2.23
2017-08-05T10:54:26.905Z,2.20
2017-08-05T10:56:54.487Z,2.70
2017-08-05T10:59:22.082Z,1.90
2017-08-05T11:01:49.630Z,2.10
2017-08-05T11:04:17.177Z,2.10
2017-08-05T11:06:44.706Z,1.90
2017-08-05T11:09:12.261Z,1.83
2017-08-05T11:11:40.586Z,2.03
2017-08-05T11:14:08.149Z,2.03
2017-08-05T11:16:35.697Z,2.00
2017-08-05T11:19:04.588Z,2.30
2017-08-05T11:21:32.149Z,2.00
2017-08-05T11:23:59.729Z,2.30
2017-08-05T11:26:27.274Z,2.00
2017-08-05T11:28:54.830Z,1.80
2017-08-05T11:31:22.385Z,2.27
2017-08-05T11:33:50.721Z,2.07
2017-08-05T11:36:18.278Z,1.77
2017-08-05T11:38:45.839Z,2.30
2017-08-05T11:41:13.405Z,2.07
2017-08-05T11:43:41.000Z,2.17
2017-08-05T11:46:08.521Z,1.80
2017-08-05T11:48:36.063Z,1.87
2017-08-05T11:51:04.399Z,2.00
2017-08-05T11:53:31.950Z,1.70
2017-08-05T11:55:59.498Z,2.00
2017-08-05T11:58:27.063Z,1.90
2017-08-05T12:00:54.641Z,2.17
2017-08-05T12:03:22.174Z,2.30
2017-08-05T12:05:49.732Z,2.20
2017-08-05T12:08:18.029Z,2.07
2017-08-05T12:10:45.591Z,2.07
2017-08-05T12:13:13.147Z,2.00
2017-08-05T12:15:41.462Z,1.70
2017-08-05T12:18:09.000Z,1.90
2017-08-05T12:20:36.854Z,1.70
2017-08-05T12:23:05.142Z,2.10
2017-08-05T12:25:33.460Z,1.50
2017-08-05T12:28:01.130Z,1.50
2017-08-05T12:30:28.663Z,1.87
2017-08-05T12:32:56.237Z,2.17
2017-08-05T12:35:23.798Z,1.87
2017-08-05T12:37:51.351Z,1.97
2017-08-05T12:40:18.872Z,1.80
2017-08-05T12:42:46.442Z,1.50
2017-08-05T12:45:13.994Z,2.10
2017-08-05T12:47:41.563Z,1.77
2017-08-05T12:50:09.073Z,1.87
2017-08-05T12:52:37.402Z,1.53
2017-08-05T12:55:04.959Z,1.67
2017-08-05T12:57:32.518Z,2.03
2017-08-05T13:00:00.075Z,1.90
2017-08-05T13:02:27.627Z,1.50
2017-08-05T13:04:55.182Z,2.20
2017-08-05T13:07:23.483Z,1.50
2017-08-05T13:09:51.030Z,1.60
2017-08-05T13:12:18.573Z,1.60
2017-08-05T13:14:46.162Z,1.97
2017-08-05T13:17:14.476Z,2.03
2017-08-05T13:19:42.941Z,1.97
2017-08-05T13:22:10.491Z,2.07
2017-08-05T13:24:38.058Z,1.90
2017-08-05T13:27:05.609Z,1.97
2017-08-05T13:29:33.919Z,1.80
2017-08-05T13:32:01.515Z,1.80
2017-08-05T13:34:29.075Z,1.70
2017-08-05T13:36:56.637Z,1.83
2017-08-05T13:39:24.157Z,1.60
2017-08-05T13:41:52.580Z,1.73
2017-08-05T13:44:20.136Z,1.57
2017-08-05T13:46:47.684Z,1.67
2017-08-05T13:49:15.262Z,1.63
2017-08-05T13:51:42.851Z,1.70
2017-08-05T13:54:10.399Z,1.70
2017-08-05T13:56:37.974Z,1.57
2017-08-05T13:59:05.518Z,1.87
2017-08-05T14:01:33.047Z,1.50
2017-08-05T14:04:01.525Z,1.73
2017-08-05T14:06:29.861Z,1.87
2017-08-05T14:08:57.412Z,1.70
2017-08-05T14:11:24.942Z,1.77
2017-08-05T14:13:53.279Z,2.00
2017-08-05T14:16:20.809Z,2.10
2017-08-05T14:18:48.353Z,1.90
2017-08-05T14:21:16.675Z,2.20
2017-08-05T14:23:44.260Z,1.87
2017-08-05T14:26:11.785Z,1.53
2017-08-05T14:28:39.329Z,1.57
2017-08-05T14:31:07.652Z,1.57
2017-08-05T14:33:35.196Z,1.40
2017-08-05T14:36:02.788Z,1.87
2017-08-05T14:38:30.351Z,1.50
2017-08-05T14:40:57.916Z,1.40
2017-08-05T14:43:25.457Z,1.50
2017-08-05T14:45:53.010Z,1.30
2017-08-05T14:48:21.333Z,1.40
2017-08-05T14:50:48.886Z,1.50
2017-08-05T14:53:16.418Z,1.30
2017-08-05T14:55:44.002Z,1.30
2017-08-05T14:58:11.550Z,1.60
2017-08-05T15:00:39.870Z,1.40
2017-08-05T15:03:07.439Z,1.40
2017-08-05T15:05:36.909Z,1.70
2017-08-05T15:08:04.466Z,1.50
2017-08-05T15:10:32.802Z,1.63
2017-08-05T15:13:00.360Z,1.60
2017-08-05T15:15:27.877Z,1.20
2017-08-05T15:17:56.204Z,1.90
2017-08-05T15:20:23.755Z,1.20
2017-08-05T15:22:51.279Z,1.30
2017-08-05T15:25:19.618Z,1.40
2017-08-05T15:27:47.147Z,1.33
2017-08-05T15:30:14.706Z,1.30
2017-08-05T15:32:42.288Z,1.20
2017-08-05T15:35:09.861Z,1.20
2017-08-05T15:37:37.406Z,1.00
2017-08-05T15:40:04.973Z,1.30
2017-08-05T15:42:32.543Z,1.30
2017-08-05T15:45:00.081Z,1.10
2017-08-05T15:47:27.669Z,0.90
2017-08-05T15:49:55.234Z,1.13
2017-08-05T15:52:22.805Z,1.50
2017-08-05T15:54:50.332Z,1.10
2017-08-05T15:57:19.253Z,1.37
2017-08-05T15:59:46.773Z,1.17
2017-08-05T16:02:14.345Z,1.37
2017-08-05T16:04:41.893Z,1.43
2017-08-05T16:07:09.533Z,1.33
2017-08-05T16:09:37.126Z,1.27
2017-08-05T16:12:04.690Z,1.40
2017-08-05T16:14:32.235Z,1.13
2017-08-05T16:16:59.773Z,1.20
2017-08-05T16:19:27.331Z,1.03
2017-08-05T16:21:55.627Z,1.20
2017-08-05T16:24:23.182Z,1.30
2017-08-05T16:26:50.727Z,1.27
2017-08-05T16:29:18.276Z,1.23
2017-08-05T16:31:46.661Z,1.10
2017-08-05T16:34:14.656Z,1.00
2017-08-05T16:36:42.958Z,1.20
2017-08-05T16:39:10.523Z,1.27
2017-08-05T16:41:38.126Z,1.10
2017-08-05T16:44:05.684Z,1.00
2017-08-05T16:46:33.242Z,1.40
2017-08-05T16:49:00.795Z,0.90
2017-08-05T16:51:28.369Z,1.30
2017-08-05T16:53:55.920Z,1.27
2017-08-05T16:56:23.477Z,1.20
2017-08-05T16:58:51.027Z,1.47
2017-08-05T17:01:18.594Z,1.47
2017-08-05T17:03:46.118Z,1.00
2017-08-05T17:06:13.678Z,1.13
2017-08-05T17:08:41.230Z,1.20
2017-08-05T17:11:08.813Z,1.13
2017-08-05T17:13:36.376Z,1.23
2017-08-05T17:16:03.932Z,1.20
2017-08-05T17:18:31.493Z,1.03
2017-08-05T17:20:59.054Z,1.07
2017-08-05T17:23:26.609Z,1.20
2017-08-05T17:25:54.181Z,1.03
2017-08-05T17:28:21.724Z,1.17
2017-08-05T17:30:49.272Z,1.10
2017-08-05T17:33:16.816Z,1.10
2017-08-05T17:35:44.343Z,1.30
2017-08-05T17:38:11.907Z,1.20
2017-08-05T17:40:40.452Z,1.23
2017-08-05T17:43:08.024Z,1.00
2017-08-05T17:45:35.592Z,1.30
2017-08-05T17:48:03.151Z,1.40
2017-08-05T17:50:31.470Z,1.23
2017-08-05T17:52:59.715Z,1.10
2017-08-05T17:55:27.273Z,1.37
2017-08-05T17:57:55.587Z,1.00
2017-08-05T18:00:23.145Z,1.30
2017-08-05T18:02:50.706Z,1.30
2017-08-05T18:05:18.265Z,1.53
2017-08-05T18:07:45.832Z,1.80
2017-08-05T18:10:13.375Z,1.50
2017-08-05T18:12:40.916Z,1.40
2017-08-05T18:15:08.466Z,1.50
2017-08-05T18:17:36.008Z,1.57
2017-08-05T18:20:03.585Z,1.40
2017-08-05T18:22:31.140Z,2.30
2017-08-05T18:24:58.686Z,1.70
2017-08-05T18:27:26.238Z,2.23
2017-08-05T18:29:53.792Z,1.70
2017-08-05T18:32:22.113Z,1.90
2017-08-05T18:34:49.647Z,2.30
2017-08-05T18:37:17.215Z,1.80
2017-08-05T18:39:44.761Z,2.00
2017-08-05T18:42:12.327Z,1.93
2017-08-05T18:44:40.644Z,2.30
2017-08-05T18:47:08.199Z,1.97
2017-08-05T18:49:35.731Z,2.10
2017-08-05T18:52:04.067Z,2.10
2017-08-05T18:54:31.621Z,2.30
2017-08-05T18:56:59.911Z,2.00
2017-08-05T18:59:27.480Z,2.00
2017-08-05T19:01:55.034Z,2.07
2017-08-05T19:04:22.604Z,1.70
2017-08-05T19:06:50.137Z,2.00
2017-08-05T19:09:18.462Z,2.20
2017-08-05T19:11:45.990Z,2.40
2017-08-05T19:14:13.554Z,2.30
2017-08-05T19:16:41.844Z,1.80
2017-08-05T19:19:09.428Z,2.07
2017-08-05T19:21:36.974Z,2.00
2017-08-05T19:24:04.520Z,2.00
2017-08-05T19:26:33.380Z,1.97
2017-08-05T19:29:00.947Z,2.20
2017-08-05T19:31:29.482Z,2.20
2017-08-05T19:33:57.014Z,2.30
2017-08-05T19:36:24.581Z,1.90
2017-08-05T19:38:52.889Z,1.87
2017-08-05T19:41:20.458Z,2.13
2017-08-05T19:43:48.018Z,2.23
2017-08-05T19:46:15.601Z,2.00
2017-08-05T19:48:43.134Z,2.23
2017-08-05T19:51:10.722Z,1.83
2017-08-05T19:53:38.254Z,2.40
2017-08-05T19:56:06.572Z,2.40
2017-08-05T19:58:34.108Z,2.17
2017-08-05T20:01:01.697Z,2.73
2017-08-05T20:03:29.244Z,2.13
2017-08-05T20:05:56.770Z,1.80
2017-08-05T20:08:24.339Z,2.10
2017-08-05T20:10:51.889Z,2.10
2017-08-05T20:13:19.456Z,1.70
2017-08-05T20:15:47.744Z,2.30
2017-08-05T20:18:15.307Z,1.73
2017-08-05T20:20:42.837Z,1.70
2017-08-05T20:23:10.382Z,2.03
2017-08-05T20:25:37.918Z,1.50
2017-08-05T20:28:05.468Z,1.30
2017-08-05T20:30:33.007Z,1.67
2017-08-05T20:33:03.792Z,1.93
2017-08-05T20:35:32.092Z,1.43
2017-08-05T20:37:59.651Z,1.67
2017-08-05T20:40:27.979Z,1.80
2017-08-05T20:42:55.512Z,1.93
2017-08-05T20:45:23.069Z,1.80
2017-08-05T20:47:51.365Z,1.70
2017-08-05T20:50:18.973Z,1.77
2017-08-05T20:52:46.533Z,1.63
2017-08-05T20:55:14.124Z,1.83
2017-08-05T20:57:42.459Z,2.10
2017-08-05T21:00:10.013Z,2.00
2017-08-05T21:02:37.542Z,1.60
2017-08-05T21:05:05.102Z,1.80
2017-08-05T21:07:32.641Z,1.50
2017-08-05T21:10:00.205Z,1.57
2017-08-05T21:12:27.737Z,1.63
2017-08-05T21:14:55.307Z,1.83
2017-08-05T21:17:22.870Z,1.70
2017-08-05T21:19:50.435Z,1.80
2017-08-05T21:22:17.997Z,1.60
2017-08-05T21:24:45.543Z,1.80
2017-08-05T21:27:13.875Z,3.90
2017-08-05T21:29:41.423Z,2.00
2017-08-05T21:32:11.003Z,2.00
2017-08-05T21:34:38.564Z,2.00
2017-08-05T21:37:06.892Z,1.80
2017-08-05T21:39:35.372Z,1.90
2017-08-05T21:42:02.936Z,1.70
2017-08-05T21:44:30.516Z,2.00
2017-08-05T21:46:58.095Z,2.27
2017-08-05T21:49:25.656Z,2.03
2017-08-05T21:51:53.267Z,1.87
2017-08-05T21:54:20.821Z,2.27
2017-08-05T21:56:49.135Z,1.80
2017-08-05T21:59:16.694Z,1.90
2017-08-05T22:01:44.306Z,1.90
2017-08-05T22:04:11.942Z,2.10
2017-08-05T22:06:39.491Z,1.47
2017-08-05T22:09:07.113Z,2.00
2017-08-05T22:11:34.705Z,2.00
2017-08-05T22:14:02.273Z,2.00
2017-08-05T22:16:29.815Z,2.10
2017-08-05T22:18:58.145Z,2.10
2017-08-05T22:21:25.677Z,2.00
2017-08-05T22:23:54.005Z,2.30
2017-08-05T22:26:21.554Z,1.80
2017-08-05T22:28:49.105Z,1.80
2017-08-05T22:31:16.657Z,1.90
2017-08-05T22:33:44.251Z,2.40
2017-08-05T22:36:11.787Z,2.20
2017-08-05T22:38:39.386Z,2.00
2017-08-05T22:41:06.932Z,1.60
2017-08-05T22:43:34.460Z,2.10
2017-08-05T22:46:02.023Z,2.13
2017-08-05T22:48:29.570Z,1.50
2017-08-05T22:50:57.135Z,1.50
2017-08-05T22:53:24.696Z,1.60
2017-08-05T22:55:52.285Z,1.67
2017-08-05T22:58:19.837Z,1.33
2017-08-05T23:00:47.422Z,1.40
2017-08-05T23:03:14.969Z,1.30
2017-08-05T23:05:42.545Z,1.27
2017-08-05T23:08:10.084Z,1.30
2017-08-05T23:10:37.661Z,1.47
2017-08-05T23:13:05.710Z,1.27
2017-08-05T23:15:33.343Z,1.20
2017-08-05T23:18:00.883Z,1.20
2017-08-05T23:20:28.434Z,1.50
2017-08-05T23:22:55.994Z,1.30
2017-08-05T23:25:23.554Z,1.50
2017-08-05T23:27:51.131Z,1.10
2017-08-05T23:30:18.665Z,1.60
2017-08-05T23:32:46.211Z,1.30
2017-08-05T23:35:14.087Z,1.50
2017-08-05T23:37:42.888Z,1.00
2017-08-05T23:40:10.478Z,1.60
2017-08-05T23:42:38.036Z,1.30
2017-08-05T23:45:05.606Z,1.07
2017-08-05T23:47:33.181Z,1.40
2017-08-05T23:50:02.951Z,1.00
2017-08-05T23:52:30.717Z,1.30
2017-08-05T23:54:58.265Z,1.17
2017-08-05T23:57:26.620Z,1.40
2017-08-05T23:59:54.148Z,1.10
